Time;durP1;ratioP1;P1;durP2;ratioP2;P2;SDS_P1;SDS_P2;PMS_P1;PMS_P2;Temp;Humidity;BMP_temperature;BMP_pressure;BME280_temperature;BME280_humidity;BME280_pressure;Samples;Min_cycle;Max_cycle;Signal;HPM_P1;HPM_P2
2022/08/01 00:02:12;;;;;;;16.00;8.95;;;;;;;18.87;100.00;101519.28;5071382;28;20060;-74
2022/08/01 00:04:37;;;;;;;18.15;8.55;;;;;;;18.92;100.00;101524.81;5071432;28;20033;-74
2022/08/01 00:07:03;;;;;;;15.00;7.68;;;;;;;18.86;100.00;101523.03;5071217;28;20036;-74
2022/08/01 00:09:29;;;;;;;16.75;8.07;;;;;;;18.91;100.00;101532.06;5071343;28;20039;-68
2022/08/01 00:11:54;;;;;;;20.00;10.45;;;;;;;18.92;100.00;101536.44;5071205;28;20035;-68
2022/08/01 00:14:19;;;;;;;17.80;9.23;;;;;;;18.90;100.00;101535.84;5071142;28;20021;-68
2022/08/01 00:16:45;;;;;;;19.77;8.65;;;;;;;18.92;100.00;101530.22;5071228;28;20029;-68
2022/08/01 00:19:10;;;;;;;18.83;9.63;;;;;;;18.92;100.00;101530.22;5070946;28;20127;-68
2022/08/01 00:21:36;;;;;;;19.27;8.07;;;;;;;18.92;100.00;101536.44;5070620;28;20059;-68
2022/08/01 00:24:01;;;;;;;19.17;9.07;;;;;;;18.92;100.00;101527.50;5070794;28;20481;-68
2022/08/01 00:26:27;;;;;;;16.83;8.75;;;;;;;18.90;100.00;101529.63;5070320;28;20040;-68
2022/08/01 00:28:52;;;;;;;18.00;8.27;;;;;;;18.93;100.00;101538.06;5070905;28;21032;-68
2022/08/01 00:31:17;;;;;;;18.98;7.97;;;;;;;18.93;100.00;101542.66;5070671;28;20058;-68
2022/08/01 00:33:43;;;;;;;24.13;10.18;;;;;;;18.93;100.00;101538.06;5070802;28;20037;-68
2022/08/01 00:36:08;;;;;;;18.20;8.82;;;;;;;18.94;100.00;101531.63;5070849;28;20120;-68
2022/08/01 00:38:33;;;;;;;19.50;8.93;;;;;;;18.95;100.00;101535.16;5070766;28;20468;-69
2022/08/01 00:40:59;;;;;;;19.35;10.18;;;;;;;18.96;100.00;101534.06;5070550;28;20115;-68
2022/08/01 00:43:24;;;;;;;22.02;10.25;;;;;;;18.94;100.00;101528.94;5070462;28;20068;-68
2022/08/01 00:45:49;;;;;;;20.00;10.27;;;;;;;18.94;100.00;101538.88;5070484;28;20031;-68
2022/08/01 00:48:15;;;;;;;16.40;8.70;;;;;;;18.94;100.00;101539.75;5070413;28;20032;-68
2022/08/01 00:50:40;;;;;;;21.10;9.52;;;;;;;18.94;100.00;101544.28;5069451;28;20040;-68
2022/08/01 00:53:06;;;;;;;19.30;9.07;;;;;;;18.94;100.00;101553.25;5070392;28;21126;-68
2022/08/01 00:55:32;;;;;;;18.65;9.45;;;;;;;18.94;100.00;101552.41;5070469;28;20044;-68
2022/08/01 00:57:58;;;;;;;21.20;9.73;;;;;;;18.90;100.00;101548.53;5070274;28;20058;-68
2022/08/01 01:00:25;;;;;;;22.92;10.68;;;;;;;18.84;100.00;101542.19;5070260;28;20027;-68
2022/08/01 01:02:50;;;;;;;19.10;10.50;;;;;;;18.88;100.00;101550.66;5070149;28;20534;-68
2022/08/01 01:05:16;;;;;;;21.52;10.35;;;;;;;18.85;100.00;101549.25;5070360;28;20099;-68
2022/08/01 01:07:56;;;;;;;26.45;11.73;;;;;;;18.87;100.00;101555.25;5068779;28;20032;-68
2022/08/01 01:10:25;;;;;;;25.45;10.77;;;;;;;18.86;100.00;101547.34;5070147;28;20024;-68
2022/08/01 01:12:59;;;;;;;19.65;9.55;;;;;;;18.85;100.00;101556.53;5069631;28;20067;-68
2022/08/01 01:15:41;;;;;;;24.10;12.02;;;;;;;18.83;100.00;101551.34;5069806;28;20483;-68
2022/08/01 01:18:14;;;;;;;20.77;10.15;;;;;;;18.84;100.00;101550.31;5069948;28;20071;-68
2022/08/01 01:20:43;;;;;;;20.45;9.82;;;;;;;18.85;100.00;101554.66;5069935;28;20024;-68
2022/08/01 01:23:32;;;;;;;20.85;10.70;;;;;;;18.87;100.00;101557.13;5069556;28;20103;-68
2022/08/01 01:26:28;;;;;;;23.02;11.02;;;;;;;18.87;100.00;101562.53;5069911;28;20104;-69
2022/08/01 01:29:25;;;;;;;20.20;9.68;;;;;;;18.84;100.00;101558.41;5069711;28;20038;-69
2022/08/01 01:32:28;;;;;;;16.13;7.82;;;;;;;18.82;100.00;101557.81;5069522;28;20041;-68
2022/08/01 01:34:54;;;;;;;16.42;8.63;;;;;;;18.77;100.00;101546.91;5059864;28;20120;-68
2022/08/01 01:37:23;;;;;;;16.40;8.98;;;;;;;18.78;100.00;101543.94;5069330;28;20054;-68
2022/08/01 01:39:50;;;;;;;14.10;7.20;;;;;;;18.78;100.00;101549.34;5069578;28;20056;-68
2022/08/01 01:42:18;;;;;;;16.70;8.50;;;;;;;18.78;100.00;101546.63;5069419;28;20093;-68
2022/08/01 01:44:46;;;;;;;17.05;8.25;;;;;;;18.79;100.00;101542.09;5069481;28;20024;-68
2022/08/01 01:47:14;;;;;;;19.23;9.93;;;;;;;18.80;100.00;101546.41;5069437;28;20028;-68
2022/08/01 01:49:42;;;;;;;14.68;7.55;;;;;;;18.77;100.00;101550.41;5069586;28;20079;-69
2022/08/01 01:52:09;;;;;;;14.35;6.85;;;;;;;18.77;100.00;101550.41;5069557;28;20024;-69
2022/08/01 01:54:42;;;;;;;15.68;7.03;;;;;;;18.77;100.00;101553.13;5069401;28;20123;-69
2022/08/01 01:57:09;;;;;;;13.93;6.78;;;;;;;18.77;100.00;101547.72;5069259;28;20028;-68
2022/08/01 01:59:37;;;;;;;14.10;6.78;;;;;;;18.75;100.00;101549.00;5069374;28;20064;-68
2022/08/01 02:02:05;;;;;;;16.42;9.38;;;;;;;18.74;100.00;101558.16;5067911;28;20036;-69
2022/08/01 02:04:32;;;;;;;16.67;8.05;;;;;;;18.72;100.00;101550.25;5069416;28;20032;-68
2022/08/01 02:07:00;;;;;;;18.73;8.50;;;;;;;18.69;100.00;101552.63;5069114;28;20055;-68
2022/08/01 02:09:28;;;;;;;11.27;6.25;;;;;;;18.68;100.00;101545.53;5069235;28;20502;-69
2022/08/01 02:11:54;;;;;;;16.60;7.80;;;;;;;18.66;100.00;101545.81;5068976;28;20036;-69
2022/08/01 02:14:23;;;;;;;16.90;8.02;;;;;;;18.65;100.00;101556.81;5069134;28;20172;-69
2022/08/01 02:16:49;;;;;;;16.40;7.47;;;;;;;18.62;100.00;101547.31;5069141;28;20578;-68
2022/08/01 02:19:17;;;;;;;20.85;9.82;;;;;;;18.62;100.00;101544.59;5068965;28;20044;-69
2022/08/01 02:21:52;;;;;;;17.40;8.77;;;;;;;18.62;100.00;101555.41;5069201;28;20028;-69
2022/08/01 02:24:26;;;;;;;14.15;8.13;;;;;;;18.59;100.00;101556.69;5068767;28;20043;-69
2022/08/01 02:26:54;;;;;;;16.05;8.73;;;;;;;18.59;100.00;101555.88;5068788;28;20024;-69
2022/08/01 02:29:39;;;;;;;16.38;7.82;;;;;;;18.56;100.00;101556.34;5068801;28;20033;-69
2022/08/01 02:32:07;;;;;;;16.40;8.23;;;;;;;18.53;100.00;101549.53;5069073;28;20368;-69
2022/08/01 02:34:35;;;;;;;12.57;7.25;;;;;;;18.56;100.00;101553.66;5068989;28;20035;-68
2022/08/01 02:37:02;;;;;;;15.38;7.47;;;;;;;18.53;100.00;101554.13;5067814;28;20111;-68
2022/08/01 02:39:31;;;;;;;16.88;7.93;;;;;;;18.53;100.00;101549.53;5068967;28;20539;-69
2022/08/01 02:42:00;;;;;;;16.08;7.28;;;;;;;18.49;100.00;101548.34;5068987;28;20460;-69
2022/08/01 02:44:31;;;;;;;16.80;6.85;;;;;;;18.47;100.00;101550.47;5068924;28;20033;-69
2022/08/01 02:47:02;;;;;;;22.40;8.18;;;;;;;18.48;100.00;101556.69;5068477;28;20032;-69
2022/08/01 02:49:31;;;;;;;14.85;7.82;;;;;;;18.47;100.00;101557.72;5071772;28;20120;-68
2022/08/01 02:51:58;;;;;;;16.65;7.28;;;;;;;18.44;100.00;101550.09;5072639;28;20059;-68
2022/08/01 02:54:25;;;;;;;15.77;7.20;;;;;;;18.41;100.00;101548.69;5072820;28;20384;-69
2022/08/01 02:56:52;;;;;;;19.75;7.72;;;;;;;18.42;100.00;101546.81;5072733;28;20032;-69
2022/08/01 02:59:25;;;;;;;18.02;7.90;;;;;;;18.38;100.00;101547.28;5071320;28;20035;-68
2022/08/01 03:01:55;;;;;;;15.90;7.63;;;;;;;18.40;100.00;101549.75;5072622;28;20021;-69
2022/08/01 03:04:22;;;;;;;17.00;8.80;;;;;;;18.42;100.00;101541.41;5072660;28;20020;-68
2022/08/01 03:06:48;;;;;;;16.52;7.18;;;;;;;18.40;100.00;101536.25;5072528;28;20123;-68
2022/08/01 03:09:15;;;;;;;16.77;9.10;;;;;;;18.35;100.00;101542.34;5072354;28;20116;-69
2022/08/01 03:11:42;;;;;;;15.27;6.70;;;;;;;18.36;100.00;101553.94;5072444;28;20074;-69
2022/08/01 03:14:11;;;;;;;15.90;7.22;;;;;;;18.32;100.00;101553.59;5071913;28;20035;-68
2022/08/01 03:16:39;;;;;;;14.45;7.40;;;;;;;18.27;100.00;101545.38;5071920;28;20104;-68
2022/08/01 03:19:07;;;;;;;17.15;8.23;;;;;;;18.25;100.00;101550.16;5072136;28;20052;-68
2022/08/01 03:21:34;;;;;;;16.13;7.95;;;;;;;18.23;100.00;101554.16;5072157;28;20086;-68
2022/08/01 03:24:01;;;;;;;15.90;7.38;;;;;;;18.20;100.00;101554.63;5072134;28;20035;-68
2022/08/01 03:26:33;;;;;;;14.50;6.57;;;;;;;18.17;100.00;101556.72;5071822;28;20025;-68
2022/08/01 03:29:06;;;;;;;16.73;7.45;;;;;;;18.17;100.00;101555.91;5072054;28;20472;-69
2022/08/01 03:31:35;;;;;;;17.50;7.53;;;;;;;18.15;100.00;101552.59;5072058;28;20037;-68
2022/08/01 03:34:01;;;;;;;16.70;8.45;;;;;;;18.12;100.00;101555.75;5071940;28;20056;-69
2022/08/01 03:36:28;;;;;;;15.15;6.53;;;;;;;18.07;100.00;101556.44;5071983;28;20033;-68
2022/08/01 03:38:58;;;;;;;20.17;8.18;;;;;;;18.03;100.00;101562.56;5071966;28;20044;-68
2022/08/01 03:41:27;;;;;;;17.40;6.60;;;;;;;18.04;100.00;101569.59;5071836;28;20111;-68
2022/08/01 03:44:07;;;;;;;15.27;7.78;;;;;;;18.02;100.00;101567.09;5071948;28;20365;-68
2022/08/01 03:46:46;;;;;;;15.60;7.85;;;;;;;18.01;100.00;101560.06;5071781;28;20382;-68
2022/08/01 03:49:16;;;;;;;16.08;7.38;;;;;;;17.93;100.00;101558.50;5071552;28;20612;-68
2022/08/01 03:51:44;;;;;;;15.15;6.90;;;;;;;17.92;100.00;101564.13;5071648;28;20349;-68
2022/08/01 03:54:12;;;;;;;16.23;8.35;;;;;;;17.90;100.00;101566.25;5071483;28;20035;-69
2022/08/01 03:56:40;;;;;;;18.35;7.75;;;;;;;17.89;100.00;101564.59;5071205;28;20530;-68
2022/08/01 03:59:06;;;;;;;14.55;7.93;;;;;;;17.86;100.00;101573.16;5071373;28;20040;-68
2022/08/01 04:01:33;;;;;;;16.92;8.60;;;;;;;17.85;100.00;101572.31;5071404;28;20064;-68
2022/08/01 04:03:59;;;;;;;19.38;7.55;;;;;;;17.82;100.00;101569.28;5071174;28;20048;-68
2022/08/01 04:06:25;;;;;;;16.80;8.30;;;;;;;17.80;100.00;101566.78;5071228;28;20056;-69
2022/08/01 04:08:56;;;;;;;14.52;6.95;;;;;;;17.79;100.00;101566.97;5071266;28;20123;-69
2022/08/01 04:11:25;;;;;;;20.85;8.43;;;;;;;17.78;100.00;101568.84;5071265;28;20036;-69
2022/08/01 04:13:53;;;;;;;16.77;7.25;;;;;;;17.68;100.00;101555.06;5071235;28;20357;-69
2022/08/01 04:16:18;;;;;;;17.35;7.93;;;;;;;17.67;100.00;101572.31;5071055;28;20036;-69
2022/08/01 04:18:44;;;;;;;17.23;7.53;;;;;;;17.64;100.00;101562.81;5070879;28;20040;-69
2022/08/01 04:21:10;;;;;;;18.17;8.43;;;;;;;17.71;100.00;101573.50;5071078;28;20388;-69
2022/08/01 04:23:36;;;;;;;17.67;7.57;;;;;;;17.72;100.00;101578.69;5069629;28;20683;-68
2022/08/01 04:26:05;;;;;;;17.30;6.80;;;;;;;17.69;100.00;101573.75;5070857;28;20047;-66
2022/08/01 04:28:33;;;;;;;16.42;7.88;;;;;;;17.71;100.00;101578.88;5070367;28;20028;-68
2022/08/01 04:31:00;;;;;;;15.90;7.05;;;;;;;17.66;100.00;101581.47;5069127;28;20075;-68
2022/08/01 04:33:27;;;;;;;16.83;7.20;;;;;;;17.65;100.00;101585.19;5070718;28;20032;-68
2022/08/01 04:35:55;;;;;;;16.65;7.88;;;;;;;17.65;100.00;101583.31;5070603;28;20178;-74
2022/08/01 04:38:27;;;;;;;14.68;7.32;;;;;;;17.62;100.00;101578.38;5070623;28;20055;-74
2022/08/01 04:40:53;;;;;;;19.30;7.65;;;;;;;17.68;100.00;101584.75;5070578;28;20028;-74
2022/08/01 04:43:19;;;;;;;17.05;8.20;;;;;;;17.67;100.00;101578.53;5070380;28;20472;-74
2022/08/01 04:45:47;;;;;;;14.80;7.63;;;;;;;17.64;100.00;101584.38;5069844;28;20033;-74
2022/08/01 04:48:15;;;;;;;17.73;6.88;;;;;;;17.63;100.00;101592.69;5070152;28;20430;-74
2022/08/01 04:50:41;;;;;;;15.23;6.20;;;;;;;17.59;100.00;101586.13;5070077;28;20024;-74
2022/08/01 04:53:13;;;;;;;19.95;7.28;;;;;;;17.58;100.00;101589.84;5070187;28;20529;-74
2022/08/01 04:55:38;;;;;;;19.77;7.90;;;;;;;17.57;100.00;101593.59;5070452;28;20952;-74
2022/08/01 04:58:04;;;;;;;14.45;6.60;;;;;;;17.57;100.00;101596.31;5070625;28;20047;-74
2022/08/01 05:00:30;;;;;;;16.35;7.40;;;;;;;17.58;100.00;101592.53;5070211;28;20028;-74
2022/08/01 05:02:55;;;;;;;15.00;6.63;;;;;;;17.61;100.00;101594.81;5068631;28;20119;-74
2022/08/01 05:05:21;;;;;;;15.65;6.60;;;;;;;17.64;100.00;101600.56;5068745;28;20043;-74
2022/08/01 05:07:46;;;;;;;15.18;7.75;;;;;;;17.67;100.00;101604.69;5069988;28;20498;-74
2022/08/01 05:10:12;;;;;;;17.58;7.15;;;;;;;17.67;100.00;101605.50;5070050;28;20511;-74
2022/08/01 05:12:37;;;;;;;14.32;7.60;;;;;;;17.65;100.00;101591.41;5069277;28;20040;-74
2022/08/01 05:15:03;;;;;;;15.95;6.88;;;;;;;17.73;100.00;101607.28;5069769;28;20055;-74
2022/08/01 05:17:28;;;;;;;16.52;7.10;;;;;;;17.77;100.00;101604.16;5069722;28;20048;-74
2022/08/01 05:19:54;;;;;;;17.27;7.38;;;;;;;17.77;100.00;101602.28;5069903;28;20036;-74
2022/08/01 05:22:19;;;;;;;17.73;6.80;;;;;;;17.79;100.00;101608.31;5069714;28;20032;-74
2022/08/01 05:24:46;;;;;;;11.43;5.45;;;;;;;17.82;100.00;101604.34;5069607;28;20036;-73
2022/08/01 05:27:11;;;;;;;18.10;8.13;;;;;;;17.89;100.00;101607.78;5068394;28;20036;-74
2022/08/01 05:29:36;;;;;;;16.90;6.65;;;;;;;17.92;100.00;101600.06;5069475;28;20059;-74
2022/08/01 05:32:03;;;;;;;14.27;7.53;;;;;;;18.01;100.00;101605.16;5067592;28;20037;-69
2022/08/01 05:34:28;;;;;;;13.80;7.25;;;;;;;18.07;100.00;101621.25;5069520;28;20032;-69
2022/08/01 05:36:54;;;;;;;14.90;7.35;;;;;;;18.08;100.00;101608.59;5069604;28;20043;-68
2022/08/01 05:39:19;;;;;;;12.63;5.97;;;;;;;18.13;100.00;101614.09;5069542;28;20040;-68
2022/08/01 05:41:45;;;;;;;15.18;6.93;;;;;;;18.14;100.00;101618.47;5069467;28;20115;-68
2022/08/01 05:44:10;;;;;;;18.10;8.10;;;;;;;18.23;100.00;101624.38;5069515;28;20036;-68
2022/08/01 05:46:36;;;;;;;14.75;7.65;;;;;;;18.31;100.00;101637.53;5069485;28;20071;-68
2022/08/01 05:49:03;;;;;;;17.08;7.93;;;;;;;18.37;100.00;101634.75;5069334;28;20059;-69
2022/08/01 05:51:28;;;;;;;15.60;7.22;;;;;;;18.37;100.00;101626.66;5069091;28;20036;-68
2022/08/01 05:53:54;;;;;;;13.15;6.63;;;;;;;18.38;100.00;101625.59;5068940;28;20387;-69
2022/08/01 05:56:20;;;;;;;14.15;6.90;;;;;;;18.41;100.00;101621.59;5069197;28;20099;-68
2022/08/01 05:58:46;;;;;;;12.75;6.30;;;;;;;18.45;100.00;101619.28;5069623;28;20047;-68
2022/08/01 06:01:12;;;;;;;14.32;6.80;;;;;;;18.45;100.00;101620.09;5069434;28;21019;-68
2022/08/01 06:03:37;;;;;;;12.55;6.68;;;;;;;18.44;100.00;101621.16;5067921;28;20400;-68
2022/08/01 06:06:03;;;;;;;13.30;7.07;;;;;;;18.45;100.00;101622.00;5069019;28;20028;-69
2022/08/01 06:08:29;;;;;;;15.27;6.93;;;;;;;18.46;100.00;101627.16;5069063;28;20112;-68
2022/08/01 06:10:55;;;;;;;14.88;6.72;;;;;;;18.47;100.00;101622.56;5068967;28;20063;-69
2022/08/01 06:13:21;;;;;;;15.30;7.40;;;;;;;18.48;100.00;101624.22;5067707;28;20040;-69
2022/08/01 06:15:47;;;;;;;14.27;8.35;;;;;;;18.51;100.00;101626.47;5067495;28;20078;-69
2022/08/01 06:18:14;;;;;;;13.15;5.95;;;;;;;18.52;100.00;101638.91;5069110;28;20048;-69
2022/08/01 06:20:39;;;;;;;16.52;7.60;;;;;;;18.48;100.00;101635.84;5068933;28;20060;-69
2022/08/01 06:23:05;;;;;;;14.38;6.70;;;;;;;18.53;100.00;101636.00;5069606;28;20534;-73
2022/08/01 06:25:30;;;;;;;14.93;6.65;;;;;;;18.56;100.00;101627.41;5073308;28;20112;-70
2022/08/01 06:27:56;;;;;;;13.70;7.55;;;;;;;18.62;100.00;101634.59;5072992;28;20050;-70
2022/08/01 06:30:21;;;;;;;20.27;7.15;;;;;;;18.69;100.00;101630.97;5072929;28;20101;-70
2022/08/01 06:32:47;;;;;;;12.52;5.78;;;;;;;18.67;100.00;101631.19;5072689;28;20040;-70
2022/08/01 06:35:13;;;;;;;14.02;7.00;;;;;;;18.70;100.00;101635.31;5073108;28;20035;-68
2022/08/01 06:37:39;;;;;;;14.00;7.80;;;;;;;18.73;100.00;101629.44;5072784;28;20435;-68
2022/08/01 06:40:06;;;;;;;14.85;6.15;;;;;;;18.70;100.00;101638.84;5072892;28;20060;-70
2022/08/01 06:42:35;;;;;;;11.95;5.65;;;;;;;18.71;100.00;101643.22;5072827;28;20033;-70
2022/08/01 06:45:04;;;;;;;15.27;7.95;;;;;;;18.75;100.00;101641.69;5072883;28;20024;-69
2022/08/01 06:47:30;;;;;;;10.52;5.25;;;;;;;18.80;100.00;101647.25;5072572;28;20028;-69
2022/08/01 06:49:55;;;;;;;7.65;4.60;;;;;;;18.84;100.00;101647.63;5072601;28;20429;-69
2022/08/01 06:52:20;;;;;;;10.63;5.00;;;;;;;18.95;100.00;101649.50;5072694;28;20111;-69
2022/08/01 06:54:46;;;;;;;10.40;5.35;;;;;;;19.05;100.00;101640.84;5072762;28;20068;-69
2022/08/01 06:57:12;;;;;;;7.45;4.25;;;;;;;19.16;100.00;101650.00;5072320;28;20035;-69
2022/08/01 06:59:37;;;;;;;9.15;4.97;;;;;;;19.24;99.71;101655.88;5072748;28;20071;-69
2022/08/01 07:02:02;;;;;;;8.35;4.25;;;;;;;19.28;98.21;101656.22;5072402;28;20030;-68
2022/08/01 07:04:28;;;;;;;7.88;4.32;;;;;;;19.34;97.25;101649.88;5072380;28;20142;-69
2022/08/01 07:06:53;;;;;;;8.93;4.25;;;;;;;19.40;96.87;101657.06;5072153;28;20029;-69
2022/08/01 07:09:18;;;;;;;7.20;4.32;;;;;;;19.46;96.93;101649.88;5072304;28;20029;-69
2022/08/01 07:11:44;;;;;;;8.25;4.25;;;;;;;19.57;97.68;101657.19;5071028;28;20028;-69
2022/08/01 07:14:09;;;;;;;8.35;4.63;;;;;;;19.61;97.48;101649.41;5072234;28;20089;-67
2022/08/01 07:16:35;;;;;;;8.40;4.40;;;;;;;19.62;95.43;101660.00;5071924;28;20032;-67
2022/08/01 07:19:00;;;;;;;8.13;3.45;;;;;;;19.66;95.08;101654.91;5072111;28;20078;-67
2022/08/01 07:21:26;;;;;;;7.70;4.47;;;;;;;19.60;95.02;101656.69;5072292;28;20085;-67
2022/08/01 07:23:51;;;;;;;6.40;3.83;;;;;;;19.60;94.78;101659.41;5072029;28;20041;-67
2022/08/01 07:26:17;;;;;;;7.60;3.90;;;;;;;19.59;94.77;101662.34;5071899;28;20024;-67
2022/08/01 07:28:42;;;;;;;11.43;4.22;;;;;;;19.57;94.90;101661.75;5072171;28;20588;-67
2022/08/01 07:31:08;;;;;;;10.25;5.25;;;;;;;19.55;95.39;101659.28;5071433;28;20076;-67
2022/08/01 07:33:33;;;;;;;10.35;4.50;;;;;;;19.58;96.37;101658.00;5071123;28;20059;-67
2022/08/01 07:35:58;;;;;;;8.73;4.03;;;;;;;19.66;95.47;101663.88;5071569;28;20068;-67
2022/08/01 07:38:24;;;;;;;8.63;4.13;;;;;;;19.69;95.17;101659.88;5071750;28;20047;-67
2022/08/01 07:40:49;;;;;;;8.15;4.40;;;;;;;19.70;94.89;101659.66;5054136;28;20037;-67
2022/08/01 07:43:14;;;;;;;6.47;3.60;;;;;;;19.85;93.99;101664.56;5070468;28;20112;-67
2022/08/01 07:45:41;;;;;;;6.88;3.88;;;;;;;19.93;94.17;101666.06;5071749;28;20044;-67
2022/08/01 07:48:07;;;;;;;8.35;4.53;;;;;;;20.03;91.79;101670.88;5071858;28;20131;-70
2022/08/01 07:50:33;;;;;;;7.38;4.25;;;;;;;20.10;92.23;101675.09;5071560;28;20124;-70
2022/08/01 07:52:59;;;;;;;10.00;4.95;;;;;;;20.12;91.55;101674.84;5071502;28;20051;-70
2022/08/01 07:55:24;;;;;;;12.30;4.25;;;;;;;20.15;91.44;101687.94;5071640;28;20488;-72
2022/08/01 07:57:51;;;;;;;7.70;4.40;;;;;;;20.12;91.46;101681.09;5071418;28;20032;-70
2022/08/01 08:00:16;;;;;;;8.80;3.97;;;;;;;20.12;92.55;101681.09;5071233;28;20158;-70
2022/08/01 08:02:42;;;;;;;7.93;4.53;;;;;;;20.13;91.87;101684.63;5071601;28;20509;-70
2022/08/01 08:05:07;;;;;;;10.57;4.90;;;;;;;20.14;90.95;101684.38;5071343;28;20025;-70
2022/08/01 08:07:34;;;;;;;9.60;4.40;;;;;;;20.18;91.62;101676.59;5071354;28;20035;-72
2022/08/01 08:09:59;;;;;;;9.13;5.03;;;;;;;20.33;90.75;101681.47;5071328;28;20399;-70
2022/08/01 08:12:25;;;;;;;8.20;4.05;;;;;;;20.55;89.96;101682.50;5071045;28;20044;-72
2022/08/01 08:14:50;;;;;;;9.50;4.68;;;;;;;20.71;87.95;101680.06;5070928;28;20548;-71
2022/08/01 08:17:15;;;;;;;7.97;4.18;;;;;;;21.28;86.88;101679.09;5069692;28;20028;-70
2022/08/01 08:19:41;;;;;;;5.57;3.50;;;;;;;22.73;78.13;101678.75;5070807;28;20036;-71
2022/08/01 08:22:07;;;;;;;5.22;3.33;;;;;;;24.31;72.24;101683.56;5071047;28;20028;-70
2022/08/01 08:24:33;;;;;;;7.82;3.95;;;;;;;25.00;66.67;101682.34;5070660;28;20032;-70
2022/08/01 08:27:00;;;;;;;5.72;3.92;;;;;;;24.71;67.62;101682.88;5071020;28;20178;-70
2022/08/01 08:29:29;;;;;;;9.00;4.88;;;;;;;24.17;69.36;101684.06;5070819;28;20037;-70
2022/08/01 08:31:55;;;;;;;10.50;4.93;;;;;;;23.91;71.15;101680.44;5070806;28;20044;-70
2022/08/01 08:34:21;;;;;;;7.68;5.05;;;;;;;24.61;67.82;101677.41;5068980;28;20026;-71
2022/08/01 08:36:46;;;;;;;6.05;3.92;;;;;;;24.87;67.87;101675.50;5070237;28;20183;-74
2022/08/01 08:39:12;;;;;;;9.85;5.30;;;;;;;24.55;66.65;101678.47;5070797;28;20047;-76
2022/08/01 08:41:37;;;;;;;6.72;4.82;;;;;;;24.30;66.67;101684.66;5070576;28;20051;-71
2022/08/01 08:44:06;;;;;;;8.73;5.18;;;;;;;24.05;68.53;101686.22;5070734;28;20629;-71
2022/08/01 08:46:35;;;;;;;8.48;5.80;;;;;;;24.35;68.45;101688.22;5069813;28;20495;-71
2022/08/01 08:49:03;;;;;;;8.40;5.20;;;;;;;24.66;66.75;101691.06;5070161;28;20375;-71
2022/08/01 08:51:30;;;;;;;9.07;4.43;;;;;;;24.30;68.07;101688.22;5070241;28;20043;-71
2022/08/01 08:53:57;;;;;;;9.85;5.25;;;;;;;23.69;69.50;101693.38;5070238;28;20044;-71
2022/08/01 08:56:26;;;;;;;10.50;4.85;;;;;;;23.15;72.13;101688.94;5070339;28;20718;-71
2022/08/01 08:58:52;;;;;;;7.28;4.97;;;;;;;22.76;72.46;101695.38;5070525;28;20095;-71
2022/08/01 09:01:17;;;;;;;7.32;4.25;;;;;;;22.53;73.71;101695.69;5070073;28;20574;-70
2022/08/01 09:03:44;;;;;;;6.90;3.20;;;;;;;22.34;74.55;101691.69;5070109;28;20032;-71
2022/08/01 09:06:10;;;;;;;6.18;2.97;;;;;;;22.21;74.81;101696.44;5070081;28;20467;-71
2022/08/01 09:08:36;;;;;;;4.25;2.85;;;;;;;22.21;74.25;101695.63;5070194;28;20028;-71
2022/08/01 09:11:02;;;;;;;7.55;3.22;;;;;;;22.04;75.78;101680.19;5070206;28;20107;-71
2022/08/01 09:13:27;;;;;;;6.70;3.35;;;;;;;21.87;77.11;101701.97;5069964;28;20033;-73
2022/08/01 09:15:54;;;;;;;8.27;4.15;;;;;;;21.66;79.13;101709.00;5070014;28;20033;-71
2022/08/01 09:18:46;;;;;;;5.85;3.40;;;;;;;21.45;79.94;101707.06;5069881;28;20035;-70
2022/08/01 09:21:21;;;;;;;5.85;3.63;;;;;;;21.23;80.63;101710.50;5066871;28;20041;-69
2022/08/01 09:23:58;;;;;;;5.38;2.92;;;;;;;21.31;80.78;101717.41;5069832;28;20027;-69
2022/08/01 09:26:35;;;;;;;4.53;2.90;;;;;;;21.49;80.97;101704.69;5069802;28;20043;-69
2022/08/01 09:29:18;;;;;;;4.35;3.10;;;;;;;21.71;79.87;101718.31;5069611;28;20033;-70
2022/08/01 09:31:44;;;;;;;3.95;2.72;;;;;;;21.97;77.25;101714.03;5069703;28;20484;-70
2022/08/01 09:34:11;;;;;;;3.67;2.72;;;;;;;22.21;76.40;101714.63;5069927;28;20470;-70
2022/08/01 09:36:48;;;;;;;4.25;2.90;;;;;;;22.29;75.98;101716.91;5069462;28;20029;-70
2022/08/01 09:39:14;;;;;;;6.57;2.75;;;;;;;22.24;75.30;101712.25;5068035;28;20039;-70
2022/08/01 09:41:40;;;;;;;5.57;2.72;;;;;;;22.20;74.80;101715.72;5069561;28;20021;-71
2022/08/01 09:44:06;;;;;;;4.43;2.60;;;;;;;22.22;74.37;101717.13;5069584;28;20035;-71
2022/08/01 09:46:31;;;;;;;4.18;2.70;;;;;;;22.23;74.89;101717.94;5069563;28;20519;-71
2022/08/01 09:48:58;;;;;;;2.60;2.08;;;;;;;22.14;75.67;101717.53;5068986;28;20047;-70
2022/08/01 09:51:33;;;;;;;2.47;1.85;;;;;;;22.14;74.21;101714.81;5069549;28;20531;-70
2022/08/01 09:53:59;;;;;;;3.45;2.47;;;;;;;22.15;74.77;101718.34;5069348;28;20024;-70
2022/08/01 09:56:25;;;;;;;3.10;2.40;;;;;;;22.11;74.79;101718.00;5069267;28;20060;-70
2022/08/01 09:58:51;;;;;;;5.18;2.60;;;;;;;21.98;74.03;101712.97;5069089;28;20113;-70
2022/08/01 10:01:22;;;;;;;3.85;2.50;;;;;;;21.92;75.46;101720.22;5069391;28;20028;-70
2022/08/01 10:04:24;;;;;;;5.00;2.70;;;;;;;21.92;76.16;101719.41;5068980;28;20112;-70
2022/08/01 10:06:52;;;;;;;2.28;1.60;;;;;;;21.91;74.19;101720.50;5069190;28;20028;-70
2022/08/01 10:09:29;;;;;;;1.98;1.70;;;;;;;21.84;74.71;101720.66;5069280;28;20021;-70
2022/08/01 10:11:56;;;;;;;3.20;1.60;;;;;;;21.98;74.91;101721.09;5069246;28;20709;-70
2022/08/01 10:14:24;;;;;;;2.70;2.03;;;;;;;22.34;71.68;101716.16;5069255;28;20486;-71
2022/08/01 10:16:52;;;;;;;1.95;1.75;;;;;;;22.82;72.24;101719.91;5068968;28;20074;-69
2022/08/01 10:19:19;;;;;;;1.77;1.33;;;;;;;22.87;69.64;101722.69;5069165;28;20025;-69
2022/08/01 10:21:49;;;;;;;2.63;2.10;;;;;;;22.64;71.35;101718.41;5069208;28;20082;-70
2022/08/01 10:24:15;;;;;;;1.60;1.50;;;;;;;22.57;72.17;101729.47;5069227;28;20031;-70
2022/08/01 10:26:43;;;;;;;3.83;2.05;;;;;;;22.22;72.43;101736.13;5069008;28;20079;-69
2022/08/01 10:29:09;;;;;;;3.28;1.75;;;;;;;21.92;74.41;101735.69;5068909;28;20059;-75
2022/08/01 10:31:36;;;;;;;2.13;1.50;;;;;;;21.81;74.99;101730.13;5069213;28;20507;-70
2022/08/01 10:34:02;;;;;;;1.98;1.42;;;;;;;21.88;74.39;101736.22;5068957;28;20036;-70
2022/08/01 10:36:29;;;;;;;1.83;1.42;;;;;;;21.93;73.41;101731.91;5069063;28;20033;-70
2022/08/01 10:38:55;;;;;;;3.00;1.63;;;;;;;21.93;73.17;101738.19;5068763;28;20037;-70
2022/08/01 10:41:21;;;;;;;2.33;1.52;;;;;;;21.81;75.68;101732.84;5068516;28;20032;-70
2022/08/01 10:43:47;;;;;;;1.92;1.70;;;;;;;21.86;76.47;101722.06;5068838;28;20579;-70
2022/08/01 10:46:12;;;;;;;2.28;1.65;;;;;;;22.01;74.92;101726.88;5068710;28;20104;-70
2022/08/01 10:49:00;;;;;;;4.80;2.50;;;;;;;22.15;73.97;101740.09;5068766;28;20029;-70
2022/08/01 10:51:27;;;;;;;3.22;1.70;;;;;;;22.14;74.31;101736.56;5068784;28;20040;-70
2022/08/01 10:53:54;;;;;;;2.38;2.10;;;;;;;22.24;74.87;101734.00;5068478;28;20373;-70
2022/08/01 10:56:20;;;;;;;2.05;1.85;;;;;;;22.31;75.19;101729.16;5068758;28;20503;-70
2022/08/01 10:58:47;;;;;;;3.25;2.08;;;;;;;22.13;74.57;101739.50;5068500;28;20040;-70
2022/08/01 11:01:34;;;;;;;2.47;1.85;;;;;;;21.76;74.74;101738.19;5068809;28;20441;-71
2022/08/01 11:04:14;;;;;;;2.95;1.65;;;;;;;21.62;75.71;101734.22;5068683;28;20066;-71
2022/08/01 11:06:41;;;;;;;1.65;1.55;;;;;;;21.58;74.76;101742.00;5068183;28;20111;-71
2022/08/01 11:09:13;;;;;;;1.40;1.30;;;;;;;21.58;75.27;101747.44;5069508;28;20364;-70
2022/08/01 11:12:17;;;;;;;2.20;1.30;;;;;;;21.58;74.74;101754.75;5072339;28;20060;-70
2022/08/01 11:15:00;;;;;;;1.55;1.42;;;;;;;21.54;75.30;101756.34;5072329;28;20483;-70
2022/08/01 11:17:48;;;;;;;2.60;1.85;;;;;;;21.54;75.39;101750.91;5072068;28;20067;-69
2022/08/01 11:20:15;;;;;;;1.65;1.10;;;;;;;21.57;71.63;101755.84;5072127;28;20028;-69